Time;durP1;ratioP1;P1;durP2;ratioP2;P2;SDS_P1;SDS_P2;PMS_P1;PMS_P2;Temp;Humidity;BMP_temperature;BMP_pressure;BME280_temperature;BME280_humidity;BME280_pressure;Samples;Min_cycle;Max_cycle;Signal;HPM_P1;HPM_P2
2022/10/23 00:01:09;;;;;;;11.88;8.63;;;11.30;99.90;;;;;;5020505;28;20030;-55
2022/10/23 00:03:35;;;;;;;14.48;11.07;;;11.30;99.90;;;;;;5012872;28;20050;-56
2022/10/23 00:06:06;;;;;;;11.52;8.82;;;11.20;99.90;;;;;;5019519;28;20463;-51
2022/10/23 00:08:32;;;;;;;11.18;9.00;;;11.20;99.90;;;;;;5021891;28;20361;-54
2022/10/23 00:10:58;;;;;;;12.38;9.32;;;11.20;99.90;;;;;;5022005;28;20503;-54
2022/10/23 00:13:23;;;;;;;10.80;8.60;;;11.20;99.90;;;;;;5025868;28;20091;-57
2022/10/23 00:15:49;;;;;;;12.52;9.20;;;11.20;99.90;;;;;;5018865;28;20036;-52
2022/10/23 00:18:14;;;;;;;12.20;10.00;;;11.20;99.90;;;;;;5022464;28;20021;-52
2022/10/23 00:20:40;;;;;;;10.55;9.32;;;11.20;99.90;;;;;;5022160;28;20071;-51
2022/10/23 00:23:06;;;;;;;14.35;8.63;;;11.20;99.90;;;;;;5019918;28;20061;-57
2022/10/23 00:25:32;;;;;;;11.82;8.65;;;11.10;99.90;;;;;;5020801;28;20028;-51
2022/10/23 00:27:58;;;;;;;15.60;9.60;;;11.10;99.90;;;;;;5020954;28;20056;-54
2022/10/23 00:30:23;;;;;;;13.32;8.77;;;11.10;99.90;;;;;;5021131;28;20675;-53
2022/10/23 00:32:49;;;;;;;11.90;9.02;;;11.10;99.90;;;;;;5019950;28;20041;-51
2022/10/23 00:35:15;;;;;;;12.15;9.18;;;11.00;99.90;;;;;;5010965;28;20044;-52
2022/10/23 00:37:40;;;;;;;10.02;7.70;;;11.00;99.90;;;;;;5022179;28;20108;-53
2022/10/23 00:40:07;;;;;;;10.93;9.35;;;11.00;99.90;;;;;;5019794;28;20492;-52
2022/10/23 00:42:32;;;;;;;11.88;8.98;;;10.90;99.90;;;;;;5021433;28;20021;-57
2022/10/23 00:45:15;;;;;;;14.20;9.23;;;10.90;99.90;;;;;;5019338;28;20053;-51
2022/10/23 00:47:40;;;;;;;11.38;8.80;;;10.90;99.90;;;;;;5012262;28;20017;-51
2022/10/23 00:50:06;;;;;;;15.18;9.70;;;10.90;99.90;;;;;;5024877;28;20088;-51
2022/10/23 00:52:33;;;;;;;11.57;9.68;;;10.90;99.90;;;;;;5018642;28;20026;-55
2022/10/23 00:54:59;;;;;;;12.75;10.13;;;10.80;99.90;;;;;;5024469;28;20108;-53
2022/10/23 00:57:25;;;;;;;11.15;9.85;;;10.80;99.90;;;;;;5017480;28;20358;-54
2022/10/23 00:59:51;;;;;;;14.77;9.05;;;10.80;99.90;;;;;;5015031;28;20680;-56
2022/10/23 01:02:16;;;;;;;11.65;9.02;;;10.80;99.90;;;;;;5020981;28;20048;-54
2022/10/23 01:04:42;;;;;;;12.45;10.23;;;10.80;99.90;;;;;;5015256;28;20037;-52
2022/10/23 01:07:23;;;;;;;12.27;9.45;;;10.70;99.90;;;;;;5024040;28;20519;-53
2022/10/23 01:10:10;;;;;;;12.65;10.38;;;10.80;99.90;;;;;;5012566;28;20037;-56
2022/10/23 01:13:02;;;;;;;19.95;14.77;;;10.80;99.90;;;;;;5017557;28;20029;-53
2022/10/23 01:15:30;;;;;;;16.73;13.05;;;10.90;99.90;;;;;;5016621;28;20021;-55
2022/10/23 01:18:15;;;;;;;24.83;14.02;;;10.90;99.90;;;;;;5018673;28;20026;-51
2022/10/23 01:21:03;;;;;;;18.08;12.90;;;10.90;99.90;;;;;;5020843;28;20028;-52
2022/10/23 01:23:38;;;;;;;19.13;13.00;;;10.90;99.90;;;;;;5015436;28;20100;-51
2022/10/23 01:26:30;;;;;;;17.47;13.10;;;11.00;99.90;;;;;;5018031;28;20531;-54
2022/10/23 01:29:09;;;;;;;17.27;13.10;;;11.00;99.90;;;;;;5019223;28;20033;-54
2022/10/23 01:31:48;;;;;;;18.38;12.82;;;11.00;99.90;;;;;;5016737;28;20030;-52
2022/10/23 01:34:39;;;;;;;16.67;12.68;;;11.00;99.90;;;;;;5023588;28;20025;-51
2022/10/23 01:37:12;;;;;;;23.58;13.30;;;11.00;99.90;;;;;;5014238;28;20052;-52
2022/10/23 01:39:44;;;;;;;17.33;12.48;;;10.90;99.90;;;;;;5019331;28;20451;-53
2022/10/23 01:42:29;;;;;;;24.80;13.30;;;10.90;99.90;;;;;;5017877;28;20021;-54
2022/10/23 01:45:08;;;;;;;19.05;12.63;;;10.90;99.90;;;;;;5037745;23;20037;-46
2022/10/23 01:47:35;;;;;;;19.90;14.30;;;10.90;99.90;;;;;;4997177;28;20037;-48
2022/10/23 01:50:04;;;;;;;14.50;12.35;;;10.90;99.90;;;;;;4999215;28;20025;-50
2022/10/23 01:52:29;;;;;;;18.27;12.80;;;10.90;99.90;;;;;;4995726;28;20022;-46
2022/10/23 01:54:59;;;;;;;19.20;12.98;;;10.90;99.90;;;;;;5002881;28;20369;-47
2022/10/23 01:57:28;;;;;;;14.05;11.70;;;10.90;99.90;;;;;;5000773;28;20097;-52
2022/10/23 02:00:02;;;;;;;17.42;13.98;;;10.90;99.90;;;;;;5003003;28;20049;-48
2022/10/23 02:02:31;;;;;;;21.67;13.23;;;10.90;99.90;;;;;;4995996;28;20511;-49
2022/10/23 02:04:59;;;;;;;18.25;12.82;;;10.90;99.90;;;;;;4998662;28;20034;-51
2022/10/23 02:07:25;;;;;;;16.33;12.18;;;10.90;99.90;;;;;;5002849;28;20092;-48
2022/10/23 02:09:51;;;;;;;16.67;11.82;;;10.90;99.90;;;;;;4997811;28;20385;-46
2022/10/23 02:12:34;;;;;;;16.45;12.32;;;10.90;99.90;;;;;;4998834;28;20049;-46
2022/10/23 02:15:08;;;;;;;13.57;10.48;;;10.80;99.90;;;;;;4998513;28;20027;-46
2022/10/23 02:17:53;;;;;;;14.27;11.75;;;10.80;99.90;;;;;;4993346;28;20038;-46
2022/10/23 02:20:35;;;;;;;13.63;10.63;;;10.80;99.90;;;;;;4993616;28;20025;-51
2022/10/23 02:23:14;;;;;;;13.63;11.32;;;10.80;99.90;;;;;;4997219;28;20036;-46
2022/10/23 02:25:50;;;;;;;14.32;11.13;;;10.80;99.90;;;;;;4994122;28;20030;-48
2022/10/23 02:28:21;;;;;;;12.43;10.00;;;10.70;99.90;;;;;;4993886;28;20484;-50
2022/10/23 02:30:49;;;;;;;11.90;9.23;;;10.70;99.90;;;;;;4993078;28;20089;-48
2022/10/23 02:33:16;;;;;;;11.77;10.40;;;10.70;99.90;;;;;;5000673;28;20112;-50
2022/10/23 02:35:42;;;;;;;14.23;10.18;;;10.70;99.90;;;;;;4996018;28;20031;-48
2022/10/23 02:38:30;;;;;;;15.68;11.65;;;10.70;99.90;;;;;;5003718;28;20088;-48
2022/10/23 02:41:07;;;;;;;14.40;10.68;;;10.70;99.90;;;;;;4996069;28;20054;-49
2022/10/23 02:43:39;;;;;;;13.75;10.68;;;10.70;99.90;;;;;;5003912;28;20026;-51
2022/10/23 02:46:24;;;;;;;12.68;10.05;;;10.70;99.90;;;;;;5001211;28;20027;-49
2022/10/23 02:49:02;;;;;;;14.45;10.88;;;10.60;99.90;;;;;;4995386;28;20054;-51
2022/10/23 02:51:53;;;;;;;13.27;9.88;;;10.60;99.90;;;;;;5001450;28;20037;-48
2022/10/23 02:54:58;;;;;;;13.85;10.43;;;10.60;99.90;;;;;;4964212;28;20505;-50
2022/10/23 02:57:30;;;;;;;9.73;8.57;;;10.60;99.90;;;;;;5001065;28;20026;-51
2022/10/23 03:00:10;;;;;;;10.35;8.93;;;10.50;99.90;;;;;;5000980;28;20050;-48
2022/10/23 03:02:54;;;;;;;12.18;9.93;;;10.50;99.90;;;;;;5002006;28;20424;-50
2022/10/23 03:05:24;;;;;;;12.57;9.25;;;10.50;99.90;;;;;;4983460;28;20031;-48
2022/10/23 03:07:51;;;;;;;11.57;9.48;;;10.50;99.90;;;;;;4996754;28;20072;-48
2022/10/23 03:10:17;;;;;;;12.02;9.52;;;10.50;99.90;;;;;;4999479;28;20025;-48
2022/10/23 03:12:42;;;;;;;14.85;10.23;;;10.40;99.90;;;;;;4998170;28;20116;-49
2022/10/23 03:15:10;;;;;;;15.75;10.57;;;10.40;99.90;;;;;;5001809;28;20041;-48
2022/10/23 03:17:36;;;;;;;13.32;10.10;;;10.40;99.90;;;;;;4997830;28;20469;-48
2022/10/23 03:20:02;;;;;;;10.45;9.13;;;10.30;99.90;;;;;;5001597;28;20089;-50
2022/10/23 03:22:28;;;;;;;11.48;9.88;;;10.30;99.90;;;;;;5003256;28;20040;-49
2022/10/23 03:24:53;;;;;;;12.63;9.30;;;10.30;99.90;;;;;;5001578;28;20108;-50
2022/10/23 03:27:19;;;;;;;11.13;9.65;;;10.30;99.90;;;;;;4998785;28;20014;-46
2022/10/23 03:29:44;;;;;;;13.65;9.57;;;10.30;99.90;;;;;;5000476;28;20038;-48
2022/10/23 03:32:10;;;;;;;10.73;9.00;;;10.30;99.90;;;;;;5002860;28;20017;-47
2022/10/23 03:34:35;;;;;;;10.15;8.68;;;10.30;99.90;;;;;;4996468;28;20069;-51
2022/10/23 03:37:01;;;;;;;14.32;9.98;;;10.20;99.90;;;;;;5000078;28;20049;-49
2022/10/23 03:39:27;;;;;;;11.63;8.90;;;10.20;99.90;;;;;;5001822;28;20036;-47
2022/10/23 03:41:52;;;;;;;10.60;8.82;;;10.30;99.90;;;;;;5000264;28;20049;-47
2022/10/23 03:44:18;;;;;;;9.95;8.75;;;10.30;99.90;;;;;;5006960;28;20103;-48
2022/10/23 03:46:44;;;;;;;13.25;9.90;;;10.30;99.90;;;;;;5000769;28;20030;-46
2022/10/23 03:49:09;;;;;;;10.80;8.63;;;10.30;99.90;;;;;;4999150;28;20041;-47
2022/10/23 03:51:35;;;;;;;14.38;10.20;;;10.30;99.90;;;;;;4997131;28;20018;-46
2022/10/23 03:54:01;;;;;;;9.07;8.18;;;10.30;99.90;;;;;;4992521;28;20049;-48
2022/10/23 03:56:26;;;;;;;9.68;8.32;;;10.30;99.90;;;;;;5003133;28;20054;-47
2022/10/23 03:58:52;;;;;;;9.65;8.65;;;10.30;99.90;;;;;;5000713;28;20033;-46
2022/10/23 04:01:17;;;;;;;18.95;8.20;;;10.30;99.90;;;;;;5002904;28;20037;-47
2022/10/23 04:03:43;;;;;;;11.00;9.40;;;10.30;99.90;;;;;;5001199;28;20025;-46
2022/10/23 04:06:08;;;;;;;14.02;8.43;;;10.30;99.90;;;;;;5000133;28;20037;-49
2022/10/23 04:08:34;;;;;;;12.10;8.95;;;10.30;99.90;;;;;;5003132;28;20365;-47
2022/10/23 04:11:00;;;;;;;9.38;8.18;;;10.30;99.90;;;;;;4997777;28;20157;-48
2022/10/23 04:13:25;;;;;;;10.52;9.57;;;10.30;99.90;;;;;;4999719;28;20109;-46
2022/10/23 04:15:52;;;;;;;9.88;8.80;;;10.30;99.90;;;;;;5002537;28;20033;-47
2022/10/23 04:18:18;;;;;;;9.55;8.55;;;10.30;99.90;;;;;;5002770;28;20026;-46
2022/10/23 04:20:46;;;;;;;10.32;9.23;;;10.30;99.90;;;;;;4991849;28;20385;-47
2022/10/23 04:23:12;;;;;;;9.48;8.48;;;10.30;99.90;;;;;;4993137;28;20036;-50
2022/10/23 04:25:37;;;;;;;9.55;8.10;;;10.20;99.90;;;;;;5001285;28;20029;-49
2022/10/23 04:28:03;;;;;;;9.38;8.38;;;10.20;99.90;;;;;;4999553;28;20027;-51
2022/10/23 04:30:29;;;;;;;9.73;8.50;;;10.20;99.90;;;;;;5002137;28;20026;-48
2022/10/23 04:32:54;;;;;;;11.10;8.75;;;10.20;99.90;;;;;;5001438;28;20569;-48
2022/10/23 04:35:20;;;;;;;12.98;8.43;;;10.20;99.90;;;;;;4993576;28;20569;-48
2022/10/23 04:37:46;;;;;;;9.38;8.48;;;10.20;99.90;;;;;;5003981;28;20589;-50
2022/10/23 04:40:12;;;;;;;11.40;8.88;;;10.20;99.90;;;;;;4998678;28;20030;-50
2022/10/23 04:42:37;;;;;;;12.38;8.90;;;10.20;99.90;;;;;;4998924;28;20029;-52
2022/10/23 04:45:04;;;;;;;11.82;8.10;;;10.20;99.90;;;;;;5001727;28;20080;-49
2022/10/23 04:47:30;;;;;;;9.82;8.45;;;10.20;99.90;;;;;;4999311;28;20777;-53
2022/10/23 04:49:55;;;;;;;11.02;8.88;;;10.20;99.90;;;;;;5001974;28;20025;-48
2022/10/23 04:52:21;;;;;;;9.52;8.30;;;10.20;99.90;;;;;;4999562;28;20288;-46
2022/10/23 04:54:47;;;;;;;10.23;8.63;;;10.20;99.90;;;;;;5003132;28;20037;-50
2022/10/23 04:57:12;;;;;;;11.75;9.05;;;10.10;99.90;;;;;;4999263;28;20029;-49
2022/10/23 04:59:38;;;;;;;12.13;8.45;;;10.10;99.90;;;;;;5000411;28;20021;-46
2022/10/23 05:02:04;;;;;;;10.00;8.65;;;10.10;99.90;;;;;;4999667;28;20102;-47
2022/10/23 05:04:30;;;;;;;10.57;9.07;;;10.10;99.90;;;;;;4992813;28;20038;-47
2022/10/23 05:06:56;;;;;;;11.32;9.20;;;10.10;99.90;;;;;;4998834;28;20026;-46
2022/10/23 05:09:21;;;;;;;10.45;9.10;;;10.10;99.90;;;;;;4998305;28;20045;-46
2022/10/23 05:11:47;;;;;;;11.40;9.05;;;10.10;99.90;;;;;;4999687;28;20085;-50
2022/10/23 05:14:13;;;;;;;10.18;8.50;;;10.10;99.90;;;;;;5001211;28;20042;-50
2022/10/23 05:16:44;;;;;;;10.95;9.25;;;10.10;99.90;;;;;;5002886;28;20100;-46
2022/10/23 05:19:13;;;;;;;11.57;9.10;;;10.10;99.90;;;;;;5003339;28;20022;-46
2022/10/23 05:21:40;;;;;;;9.55;7.80;;;10.00;99.90;;;;;;4990636;28;20269;-49
2022/10/23 05:24:05;;;;;;;11.02;9.10;;;10.10;99.90;;;;;;5000767;28;20132;-46
2022/10/23 05:26:31;;;;;;;9.40;8.40;;;10.00;99.90;;;;;;4997488;28;20109;-47
2022/10/23 05:28:57;;;;;;;10.65;8.40;;;10.00;99.90;;;;;;4995980;28;20117;-49
2022/10/23 05:31:23;;;;;;;10.80;9.13;;;10.00;99.90;;;;;;4996177;28;20034;-49
2022/10/23 05:33:51;;;;;;;9.88;8.60;;;10.00;99.90;;;;;;5000835;28;20049;-50
2022/10/23 05:36:17;;;;;;;11.68;8.50;;;10.00;99.90;;;;;;4995105;28;20022;-46
2022/10/23 05:38:44;;;;;;;9.40;8.00;;;10.00;99.90;;;;;;5000429;28;20025;-48
2022/10/23 05:41:10;;;;;;;11.93;8.23;;;10.00;99.90;;;;;;5000093;28;20109;-50
2022/10/23 05:43:35;;;;;;;9.32;8.43;;;10.00;99.90;;;;;;5004190;28;20456;-49
2022/10/23 05:46:04;;;;;;;10.30;8.25;;;10.00;99.90;;;;;;4999267;28;20389;-46
2022/10/23 05:48:29;;;;;;;8.77;7.88;;;10.00;99.90;;;;;;5000932;28;20511;-46
2022/10/23 05:50:55;;;;;;;8.73;7.82;;;9.90;99.90;;;;;;4993925;28;20038;-48
2022/10/23 05:53:20;;;;;;;11.68;9.15;;;9.90;99.90;;;;;;4991779;28;20034;-49
2022/10/23 05:55:46;;;;;;;11.35;8.30;;;9.90;99.90;;;;;;5003031;28;20053;-48
2022/10/23 05:58:11;;;;;;;10.65;8.82;;;9.90;99.90;;;;;;4994471;28;20018;-48
2022/10/23 06:00:37;;;;;;;11.93;8.70;;;9.90;99.90;;;;;;5001974;28;20297;-46
2022/10/23 06:03:02;;;;;;;10.40;8.63;;;9.90;99.90;;;;;;4999271;28;20406;-47
2022/10/23 06:05:28;;;;;;;11.32;9.10;;;9.80;99.90;;;;;;4999184;28;20026;-51
2022/10/23 06:08:00;;;;;;;10.23;7.80;;;9.80;99.90;;;;;;5001014;28;20058;-47
2022/10/23 06:10:26;;;;;;;11.25;8.90;;;9.80;99.90;;;;;;5005104;28;20102;-47
2022/10/23 06:12:52;;;;;;;10.05;8.50;;;9.80;99.90;;;;;;5000117;28;20584;-47
2022/10/23 06:15:17;;;;;;;10.38;8.75;;;9.70;99.90;;;;;;5005306;28;20093;-48
2022/10/23 06:17:43;;;;;;;10.50;8.52;;;9.70;99.90;;;;;;5001284;28;20511;-47
2022/10/23 06:20:09;;;;;;;13.20;9.57;;;9.70;99.90;;;;;;5004082;28;20025;-49
2022/10/23 06:22:34;;;;;;;13.65;9.35;;;9.70;99.90;;;;;;5000576;28;20033;-48
2022/10/23 06:25:00;;;;;;;12.45;8.27;;;9.70;99.90;;;;;;5003013;28;20267;-47
2022/10/23 06:27:25;;;;;;;10.82;9.23;;;9.80;99.90;;;;;;5002353;28;20026;-47
2022/10/23 06:29:51;;;;;;;13.88;9.23;;;9.80;99.90;;;;;;5003216;28;20032;-48
2022/10/23 06:32:17;;;;;;;13.38;9.10;;;9.80;99.90;;;;;;5002999;28;20109;-50
2022/10/23 06:34:43;;;;;;;15.65;10.13;;;9.80;99.90;;;;;;5007344;28;20057;-46
2022/10/23 06:37:08;;;;;;;15.32;9.60;;;9.80;99.90;;;;;;5001450;28;20101;-46
2022/10/23 06:39:35;;;;;;;12.00;8.55;;;9.80;99.90;;;;;;5003319;28;20432;-48
2022/10/23 06:42:01;;;;;;;16.88;9.82;;;9.80;99.90;;;;;;5003159;28;20060;-46
2022/10/23 06:44:27;;;;;;;12.77;9.07;;;9.80;99.90;;;;;;4998950;28;20488;-47
2022/10/23 06:46:52;;;;;;;12.90;9.35;;;9.80;99.90;;;;;;5003658;28;20503;-47
2022/10/23 06:49:18;;;;;;;11.35;8.60;;;9.80;99.90;;;;;;4999827;28;20100;-49
2022/10/23 06:51:43;;;;;;;18.25;10.05;;;9.80;99.90;;;;;;5002469;28;20032;-50
2022/10/23 06:54:10;;;;;;;11.20;8.43;;;9.90;99.90;;;;;;5001205;28;20040;-50
2022/10/23 06:56:36;;;;;;;13.85;8.80;;;9.90;99.90;;;;;;5002970;28;20026;-50
2022/10/23 06:59:02;;;;;;;10.75;8.73;;;9.90;99.90;;;;;;5003331;28;20076;-51
2022/10/23 07:01:28;;;;;;;13.02;8.50;;;9.90;99.90;;;;;;5003948;28;20026;-46
2022/10/23 07:03:53;;;;;;;11.05;9.00;;;9.90;99.90;;;;;;5002226;28;20071;-48
2022/10/23 07:06:19;;;;;;;11.95;8.48;;;9.90;99.90;;;;;;5002843;28;20032;-49
2022/10/23 07:08:44;;;;;;;11.65;8.82;;;9.90;99.90;;;;;;5004245;28;20105;-49
2022/10/23 07:11:11;;;;;;;13.20;9.13;;;10.00;99.90;;;;;;5002155;28;20593;-50
2022/10/23 07:13:37;;;;;;;13.00;8.77;;;10.00;99.90;;;;;;5003829;28;20079;-51
2022/10/23 07:16:15;;;;;;;13.65;8.70;;;10.00;99.90;;;;;;5003168;28;20025;-47
2022/10/23 07:18:41;;;;;;;14.00;8.05;;;10.00;99.90;;;;;;5003772;28;20101;-50
2022/10/23 07:21:07;;;;;;;10.48;8.30;;;10.00;99.90;;;;;;5001205;28;20041;-50
2022/10/23 07:23:32;;;;;;;13.20;8.73;;;10.10;99.90;;;;;;5002515;28;20080;-50
2022/10/23 07:26:13;;;;;;;17.58;8.80;;;10.10;99.90;;;;;;5001182;28;20406;-51
2022/10/23 07:28:40;;;;;;;11.45;8.88;;;10.10;99.90;;;;;;5006012;28;20121;-49
2022/10/23 07:31:06;;;;;;;13.45;9.05;;;10.20;99.90;;;;;;5000135;28;20425;-47
2022/10/23 07:33:32;;;;;;;13.35;9.38;;;10.20;99.90;;;;;;4994315;28;20507;-47
2022/10/23 07:35:57;;;;;;;15.25;8.73;;;10.20;99.90;;;;;;5002446;28;20034;-51
2022/10/23 07:38:23;;;;;;;15.15;8.98;;;10.20;99.90;;;;;;5000165;28;20026;-48
2022/10/23 07:40:48;;;;;;;11.38;7.47;;;10.30;99.90;;;;;;4998721;28;20026;-49
2022/10/23 07:43:16;;;;;;;17.88;9.55;;;10.30;99.90;;;;;;5007125;28;20025;-50
2022/10/23 07:45:41;;;;;;;11.90;8.23;;;10.30;99.90;;;;;;5029996;22;20052;-52
2022/10/23 07:48:07;;;;;;;12.95;8.70;;;10.40;99.90;;;;;;5022111;28;20030;-54
2022/10/23 07:50:32;;;;;;;14.52;9.05;;;10.40;99.90;;;;;;5018379;28;20028;-52
2022/10/23 07:52:58;;;;;;;8.13;7.30;;;10.40;99.90;;;;;;5015553;28;20041;-54
2022/10/23 07:55:23;;;;;;;12.90;9.00;;;10.50;99.90;;;;;;5024766;28;20022;-55
2022/10/23 07:57:52;;;;;;;14.18;8.38;;;10.60;99.90;;;;;;5011741;28;20408;-53
2022/10/23 08:00:18;;;;;;;14.82;8.30;;;10.60;99.90;;;;;;5026372;28;20377;-58
2022/10/23 08:02:43;;;;;;;11.73;7.72;;;10.60;99.90;;;;;;5014169;28;20033;-52
2022/10/23 08:05:09;;;;;;;10.65;7.93;;;10.70;99.90;;;;;;5022095;28;20025;-52
2022/10/23 08:07:34;;;;;;;13.80;7.70;;;10.70;99.90;;;;;;5022489;28;20403;-52
2022/10/23 08:10:00;;;;;;;14.45;8.82;;;10.80;99.90;;;;;;5020490;28;20547;-56
2022/10/23 08:12:25;;;;;;;12.50;7.82;;;10.80;99.90;;;;;;5024130;28;20110;-50
2022/10/23 08:14:51;;;;;;;11.02;7.80;;;10.90;99.90;;;;;;5019000;28;20040;-54
2022/10/23 08:17:17;;;;;;;15.27;9.23;;;11.00;99.90;;;;;;5026403;28;20164;-57
2022/10/23 08:19:45;;;;;;;11.30;8.20;;;11.00;99.90;;;;;;5019194;28;20026;-54
2022/10/23 08:22:11;;;;;;;10.82;7.28;;;11.10;99.90;;;;;;5021930;28;20014;-55
2022/10/23 08:24:37;;;;;;;11.48;7.93;;;11.10;99.90;;;;;;5021671;28;20442;-48
2022/10/23 08:27:02;;;;;;;12.65;7.65;;;11.20;99.90;;;;;;5020890;28;20113;-53
2022/10/23 08:29:28;;;;;;;11.63;8.18;;;11.30;99.90;;;;;;5020990;28;20046;-51
2022/10/23 08:31:55;;;;;;;9.30;7.93;;;11.30;99.90;;;;;;5019168;28;20033;-52
2022/10/23 08:34:21;;;;;;;10.40;6.30;;;11.40;99.90;;;;;;5024352;28;20546;-51
2022/10/23 08:36:46;;;;;;;10.88;7.55;;;11.40;99.90;;;;;;5020338;28;20285;-51
2022/10/23 08:39:12;;;;;;;14.80;7.75;;;11.50;99.90;;;;;;5021187;28;20041;-55
2022/10/23 08:41:41;;;;;;;8.98;6.93;;;11.50;99.90;;;;;;5017706;28;20037;-52
2022/10/23 08:44:31;;;;;;;10.95;7.28;;;11.60;99.90;;;;;;5021306;28;20061;-56
2022/10/23 08:47:22;;;;;;;11.32;6.80;;;11.60;99.90;;;;;;5012590;28;20065;-51
2022/10/23 08:49:56;;;;;;;11.32;7.40;;;11.70;99.90;;;;;;5024821;28;20026;-52
2022/10/23 08:52:43;;;;;;;11.27;7.35;;;11.80;99.90;;;;;;5008833;28;20060;-54
2022/10/23 08:55:18;;;;;;;10.63;7.70;;;11.90;99.90;;;;;;5024989;28;20038;-52
2022/10/23 08:57:54;;;;;;;12.02;7.15;;;11.90;99.90;;;;;;5011447;28;20033;-56
2022/10/23 09:00:19;;;;;;;;;;;12.00;99.90;;;;;;5019022;28;20333;-53
2022/10/23 09:02:49;;;;;;;10.07;6.33;;;12.00;99.90;;;;;;5012334;28;19920;-50
2022/10/23 09:05:25;;;;;;;7.72;6.32;;;12.10;99.90;;;;;;5014013;28;20080;-49
2022/10/23 09:08:17;;;;;;;8.77;6.20;;;12.20;99.90;;;;;;5014764;28;20028;-51
2022/10/23 09:11:14;;;;;;;8.75;6.30;;;12.30;99.90;;;;;;5020982;28;20100;-50
2022/10/23 09:13:49;;;;;;;10.63;7.18;;;12.30;99.90;;;;;;5016375;28;20041;-52
2022/10/23 09:17:06;;;;;;;8.88;5.72;;;12.40;99.90;;;;;;5015759;28;20109;-53
2022/10/23 09:19:32;;;;;;;7.82;5.78;;;12.40;99.90;;;;;;4988009;28;20535;-50
2022/10/23 09:21:58;;;;;;;8.18;5.70;;;12.40;99.90;;;;;;5006121;28;20069;-51
2022/10/23 09:24:25;;;;;;;10.15;5.75;;;12.50;99.90;;;;;;5022150;28;20018;-56
2022/10/23 09:26:52;;;;;;;11.48;5.70;;;12.50;99.90;;;;;;5017662;28;20373;-54
2022/10/23 09:29:34;;;;;;;10.88;6.65;;;12.60;99.90;;;;;;5023957;28;20057;-52
2022/10/23 09:32:02;;;;;;;6.88;5.63;;;12.70;99.90;;;;;;5015558;28;20030;-53
2022/10/23 09:34:30;;;;;;;7.45;4.75;;;12.70;99.90;;;;;;5020132;28;20527;-51
2022/10/23 09:37:19;;;;;;;5.90;4.85;;;12.80;99.90;;;;;;5018019;28;20375;-53
2022/10/23 09:39:45;;;;;;;8.57;5.07;;;12.90;99.90;;;;;;5014098;28;20018;-51
2022/10/23 09:42:28;;;;;;;14.02;5.07;;;12.90;99.90;;;;;;5021135;28;20079;-54
2022/10/23 09:44:54;;;;;;;6.63;4.88;;;13.00;99.90;;;;;;5014246;28;20040;-50
2022/10/23 09:47:24;;;;;;;7.88;4.28;;;13.10;99.90;;;;;;5019382;28;20030;-50
2022/10/23 09:49:53;;;;;;;9.30;4.95;;;13.10;99.90;;;;;;5017309;28;20089;-51
2022/10/23 09:52:34;;;;;;;5.43;4.93;;;13.20;99.90;;;;;;5020145;28;20025;-53
2022/10/23 09:55:17;;;;;;;5.82;4.35;;;13.30;99.90;;;;;;5019603;28;20041;-53
2022/10/23 09:57:43;;;;;;;5.78;4.38;;;13.40;99.90;;;;;;5014874;28;20010;-50
2022/10/23 10:00:17;;;;;;;7.45;3.70;;;13.40;99.90;;;;;;5025289;28;20029;-53
2022/10/23 10:03:04;;;;;;;6.00;4.60;;;13.50;99.90;;;;;;5016139;28;20018;-52
2022/10/23 10:05:32;;;;;;;3.85;3.33;;;13.60;99.90;;;;;;5010917;28;20057;-53
2022/10/23 10:08:19;;;;;;;9.90;3.78;;;13.70;99.90;;;;;;5016129;28;20034;-52
2022/10/23 10:11:08;;;;;;;4.47;3.05;;;13.80;99.90;;;;;;5014603;28;20105;-51
2022/10/23 10:13:43;;;;;;;3.90;3.08;;;13.90;99.90;;;;;;5015861;28;20495;-50
2022/10/23 10:16:37;;;;;;;5.97;3.42;;;13.90;99.90;;;;;;5014258;28;20121;-50
2022/10/23 10:19:30;;;;;;;6.07;2.97;;;14.00;99.90;;;;;;5011153;28;20496;-51
2022/10/23 10:22:26;;;;;;;3.40;2.75;;;14.10;99.90;;;;;;5016880;28;20025;-54
2022/10/23 10:24:58;;;;;;;5.23;3.00;;;14.20;99.90;;;;;;5017532;28;20049;-54
2022/10/23 10:27:45;;;;;;;5.90;2.67;;;14.20;99.90;;;;;;5020339;28;20013;-49
2022/10/23 10:30:20;;;;;;;5.55;3.53;;;14.30;99.90;;;;;;5019629;28;20033;-50
2022/10/23 10:32:53;;;;;;;5.72;2.95;;;14.30;99.90;;;;;;5019091;28;20022;-50
2022/10/23 10:35:41;;;;;;;4.95;2.90;;;14.40;99.90;;;;;;5014298;28;20057;-55
2022/10/23 10:38:27;;;;;;;5.72;2.28;;;14.40;99.90;;;;;;5024494;28;20025;-50
2022/10/23 10:41:17;;;;;;;12.80;3.05;;;14.50;99.90;;;;;;5014210;28;20120;-50
2022/10/23 10:43:58;;;;;;;5.53;2.42;;;14.60;99.90;;;;;;5024220;28;20084;-51
2022/10/23 10:46:53;;;;;;;3.40;2.53;;;14.60;99.90;;;;;;5015687;28;20025;-51
2022/10/23 10:49:26;;;;;;;6.25;2.85;;;14.70;99.90;;;;;;5011097;28;20018;-52
2022/10/23 10:52:15;;;;;;;4.53;2.90;;;14.70;99.90;;;;;;5017020;28;20025;-54
2022/10/23 10:54:49;;;;;;;8.95;3.22;;;14.80;99.90;;;;;;5014763;28;20032;-52
2022/10/23 10:57:30;;;;;;;4.38;2.88;;;14.80;99.90;;;;;;5016280;28;20029;-56
2022/10/23 11:00:04;;;;;;;6.25;2.38;;;14.90;99.90;;;;;;5011929;28;20021;-53
2022/10/23 11:02:44;;;;;;;4.50;2.80;;;14.90;99.90;;;;;;5023107;28;20385;-53
2022/10/23 11:05:28;;;;;;;4.07;3.15;;;15.00;99.90;;;;;;5023039;28;20448;-52
2022/10/23 11:08:21;;;;;;;4.78;2.90;;;15.10;99.90;;;;;;5020657;28;20088;-54
2022/10/23 11:10:53;;;;;;;7.03;2.40;;;15.10;99.90;;;;;;5020082;28;20113;-53
2022/10/23 11:13:34;;;;;;;5.68;2.88;;;15.20;99.90;;;;;;5020327;28;20106;-53
2022/10/23 11:16:17;;;;;;;5.30;2.58;;;15.20;99.90;;;;;;5022527;28;20030;-54
2022/10/23 11:18:49;;;;;;;4.65;2.80;;;15.20;99.90;;;;;;5023682;28;20013;-50
2022/10/23 11:21:46;;;;;;;4.63;2.75;;;15.30;99.90;;;;;;5017360;28;20029;-52
2022/10/23 11:24:42;;;;;;;6.60;2.65;;;15.30;99.90;;;;;;5026129;28;20029;-50
2022/10/23 11:27:24;;;;;;;4.38;2.65;;;15.30;99.90;;;;;;5021674;28;20030;-53
2022/10/23 11:30:19;;;;;;;4.03;2.28;;;15.40;99.90;;;;;;5017950;28;20025;-53
2022/10/23 11:33:19;;;;;;;5.50;2.42;;;15.40;99.90;;;;;;5023201;28;20056;-53
2022/10/23 11:35:54;;;;;;;3.65;2.47;;;15.40;99.90;;;;;;5015695;28;20028;-52
2022/10/23 11:38:25;;;;;;;6.90;2.90;;;15.40;99.90;;;;;;5012711;28;20376;-51
2022/10/23 11:40:54;;;;;;;5.03;3.38;;;15.40;99.90;;;;;;5016421;28;20033;-54
2022/10/23 11:43:35;;;;;;;5.57;2.47;;;15.40;99.90;;;;;;5025405;28;20101;-50
2022/10/23 11:46:25;;;;;;;5.97;2.33;;;15.50;99.90;;;;;;5014084;28;20030;-51
2022/10/23 11:48:53;;;;;;;5.82;2.67;;;15.50;99.90;;;;;;5020379;28;20115;-51
2022/10/23 11:51:29;;;;;;;5.18;2.10;;;15.50;99.90;;;;;;5022821;28;20048;-50
2022/10/23 11:54:23;;;;;;;6.10;2.17;;;15.60;99.90;;;;;;5020976;28;20030;-52
2022/10/23 11:57:07;;;;;;;5.03;2.35;;;15.60;99.90;;;;;;5021311;28;20115;-50
2022/10/23 11:59:50;;;;;;;2.25;1.75;;;15.70;99.90;;;;;;5019147;28;20017;-53
2022/10/23 12:02:37;;;;;;;3.55;2.40;;;15.70;99.90;;;;;;5016706;28;20476;-51
2022/10/23 12:05:24;;;;;;;6.00;2.33;;;15.80;99.90;;;;;;5034870;28;20029;-53
2022/10/23 12:07:54;;;;;;;4.35;1.83;;;15.80;99.90;;;;;;5019107;28;20076;-53
2022/10/23 12:10:28;;;;;;;3.45;1.70;;;15.90;99.90;;;;;;5022730;28;20056;-50
2022/10/23 12:13:04;;;;;;;6.32;2.00;;;16.00;99.90;;;;;;5020672;28;20024;-51
2022/10/23 12:15:31;;;;;;;4.28;1.88;;;16.00;99.90;;;;;;5022605;28;20071;-53
2022/10/23 12:18:26;;;;;;;4.68;1.90;;;16.00;99.90;;;;;;5021923;28;20038;-50
2022/10/23 12:21:03;;;;;;;2.63;2.00;;;16.10;99.90;;;;;;5013553;28;20496;-51
2022/10/23 12:23:47;;;;;;;5.72;1.77;;;16.10;99.90;;;;;;5022296;28;20392;-52
2022/10/23 12:26:15;;;;;;;6.28;1.58;;;16.20;99.90;;;;;;5018893;28;20021;-51
2022/10/23 12:28:47;;;;;;;7.18;1.33;;;16.20;99.90;;;;;;5024806;28;20114;-51
2022/10/23 12:31:18;;;;;;;8.63;1.92;;;16.20;99.90;;;;;;5019103;28;20022;-49
2022/10/23 12:33:56;;;;;;;3.92;1.95;;;16.30;99.90;;;;;;5022058;28;20024;-50
2022/10/23 12:36:46;;;;;;;4.10;1.90;;;16.30;99.90;;;;;;5006162;28;20017;-51
2022/10/23 12:39:26;;;;;;;3.28;1.80;;;16.40;99.90;;;;;;5021478;28;20112;-50
2022/10/23 12:41:51;;;;;;;2.10;1.50;;;16.30;99.90;;;;;;5020856;28;20021;-52
2022/10/23 12:44:17;;;;;;;5.80;2.10;;;16.40;99.90;;;;;;5022258;28;20036;-51
2022/10/23 12:46:47;;;;;;;4.03;1.70;;;16.40;99.90;;;;;;5021867;28;20064;-54
2022/10/23 12:49:19;;;;;;;4.70;1.88;;;16.40;99.90;;;;;;5019940;28;20037;-51
2022/10/23 12:51:52;;;;;;;7.25;1.73;;;16.40;99.90;;;;;;5021741;28;20483;-53
2022/10/23 12:54:19;;;;;;;4.38;1.92;;;16.40;99.90;;;;;;5020755;28;20408;-50
2022/10/23 12:56:46;;;;;;;5.18;1.95;;;16.40;99.90;;;;;;5021956;28;20022;-51
2022/10/23 12:59:17;;;;;;;4.20;1.63;;;16.40;99.90;;;;;;5020969;28;20426;-51
2022/10/23 13:01:43;;;;;;;4.10;1.55;;;16.40;99.90;;;;;;5021495;28;20447;-50
2022/10/23 13:04:19;;;;;;;9.13;2.60;;;16.50;99.90;;;;;;5018838;28;20041;-54